sensor_id;sensor_type;location;lat;lon;timestamp;P1;durP1;ratioP1;P2;durP2;ratioP2
48651;SDS011;34442;52.362;-1.302;2023-06-19T00:01:46;4.25;;;2.42;;
48651;SDS011;34442;52.362;-1.302;2023-06-19T00:04:12;4.68;;;2.53;;
48651;SDS011;34442;52.362;-1.302;2023-06-19T00:06:37;4.13;;;2.40;;
48651;SDS011;34442;52.362;-1.302;2023-06-19T00:09:03;4.15;;;2.55;;
48651;SDS011;34442;52.362;-1.302;2023-06-19T00:11:29;4.55;;;2.22;;
48651;SDS011;34442;52.362;-1.302;2023-06-19T00:13:54;4.50;;;2.45;;
48651;SDS011;34442;52.362;-1.302;2023-06-19T00:16:20;4.68;;;2.53;;
48651;SDS011;34442;52.362;-1.302;2023-06-19T00:18:46;4.13;;;2.50;;
48651;SDS011;34442;52.362;-1.302;2023-06-19T00:21:11;4.55;;;2.80;;
48651;SDS011;34442;52.362;-1.302;2023-06-19T00:23:37;5.75;;;3.53;;
48651;SDS011;34442;52.362;-1.302;2023-06-19T00:26:03;5.90;;;3.20;;
48651;SDS011;34442;52.362;-1.302;2023-06-19T00:28:29;4.38;;;2.70;;
48651;SDS011;34442;52.362;-1.302;2023-06-19T00:30:55;4.68;;;2.83;;
48651;SDS011;34442;52.362;-1.302;2023-06-19T00:33:21;5.78;;;3.85;;
48651;SDS011;34442;52.362;-1.302;2023-06-19T00:35:49;5.00;;;2.97;;
48651;SDS011;34442;52.362;-1.302;2023-06-19T00:38:15;5.00;;;3.08;;
48651;SDS011;34442;52.362;-1.302;2023-06-19T00:40:41;5.78;;;3.15;;
48651;SDS011;34442;52.362;-1.302;2023-06-19T00:43:06;7.90;;;3.60;;
48651;SDS011;34442;52.362;-1.302;2023-06-19T00:45:32;4.85;;;3.25;;
48651;SDS011;34442;52.362;-1.302;2023-06-19T00:47:58;5.50;;;3.72;;
48651;SDS011;34442;52.362;-1.302;2023-06-19T00:50:24;5.82;;;3.63;;
48651;SDS011;34442;52.362;-1.302;2023-06-19T00:52:50;4.88;;;3.15;;
48651;SDS011;34442;52.362;-1.302;2023-06-19T00:55:16;6.65;;;4.47;;
48651;SDS011;34442;52.362;-1.302;2023-06-19T00:57:42;5.75;;;3.85;;
48651;SDS011;34442;52.362;-1.302;2023-06-19T01:00:09;5.93;;;3.40;;
48651;SDS011;34442;52.362;-1.302;2023-06-19T01:02:37;4.95;;;3.28;;
48651;SDS011;34442;52.362;-1.302;2023-06-19T01:05:03;6.43;;;3.53;;
48651;SDS011;34442;52.362;-1.302;2023-06-19T01:07:42;6.22;;;3.30;;
48651;SDS011;34442;52.362;-1.302;2023-06-19T01:10:12;6.03;;;3.75;;
48651;SDS011;34442;52.362;-1.302;2023-06-19T01:13:50;5.75;;;3.42;;
48651;SDS011;34442;52.362;-1.302;2023-06-19T01:15:45;5.53;;;3.78;;
48651;SDS011;34442;52.362;-1.302;2023-06-19T01:18:12;5.90;;;3.70;;
48651;SDS011;34442;52.362;-1.302;2023-06-19T01:20:39;5.78;;;3.38;;
48651;SDS011;34442;52.362;-1.302;2023-06-19T01:23:07;6.18;;;3.75;;
48651;SDS011;34442;52.362;-1.302;2023-06-19T01:25:33;5.32;;;3.47;;
48651;SDS011;34442;52.362;-1.302;2023-06-19T01:27:58;6.07;;;3.70;;
48651;SDS011;34442;52.362;-1.302;2023-06-19T01:30:24;5.43;;;3.05;;
48651;SDS011;34442;52.362;-1.302;2023-06-19T01:35:30;6.53;;;3.85;;
48651;SDS011;34442;52.362;-1.302;2023-06-19T01:37:59;5.85;;;3.50;;
48651;SDS011;34442;52.362;-1.302;2023-06-19T01:40:26;5.72;;;3.67;;
48651;SDS011;34442;52.362;-1.302;2023-06-19T01:42:56;5.22;;;3.28;;
48651;SDS011;34442;52.362;-1.302;2023-06-19T01:45:24;4.70;;;3.10;;
48651;SDS011;34442;52.362;-1.302;2023-06-19T01:47:50;5.95;;;3.67;;
48651;SDS011;34442;52.362;-1.302;2023-06-19T01:50:15;5.55;;;3.30;;
48651;SDS011;34442;52.362;-1.302;2023-06-19T01:52:41;5.40;;;3.47;;
48651;SDS011;34442;52.362;-1.302;2023-06-19T01:55:06;5.07;;;3.33;;
48651;SDS011;34442;52.362;-1.302;2023-06-19T01:57:32;5.20;;;3.13;;
48651;SDS011;34442;52.362;-1.302;2023-06-19T01:59:58;5.30;;;3.20;;
48651;SDS011;34442;52.362;-1.302;2023-06-19T02:02:23;5.13;;;3.22;;
48651;SDS011;34442;52.362;-1.302;2023-06-19T02:04:49;5.28;;;3.10;;
48651;SDS011;34442;52.362;-1.302;2023-06-19T02:07:14;4.88;;;3.25;;
48651;SDS011;34442;52.362;-1.302;2023-06-19T02:09:40;5.75;;;3.22;;
48651;SDS011;34442;52.362;-1.302;2023-06-19T02:12:06;5.07;;;2.72;;
48651;SDS011;34442;52.362;-1.302;2023-06-19T02:14:32;5.22;;;3.00;;
48651;SDS011;34442;52.362;-1.302;2023-06-19T02:16:57;5.15;;;3.03;;
48651;SDS011;34442;52.362;-1.302;2023-06-19T02:19:23;5.65;;;3.13;;
48651;SDS011;34442;52.362;-1.302;2023-06-19T02:21:48;5.63;;;3.03;;
48651;SDS011;34442;52.362;-1.302;2023-06-19T02:24:14;6.05;;;3.42;;
48651;SDS011;34442;52.362;-1.302;2023-06-19T02:26:39;5.10;;;3.13;;
48651;SDS011;34442;52.362;-1.302;2023-06-19T02:29:04;6.50;;;3.83;;
48651;SDS011;34442;52.362;-1.302;2023-06-19T02:31:30;5.95;;;3.65;;
48651;SDS011;34442;52.362;-1.302;2023-06-19T02:33:55;5.00;;;3.03;;
48651;SDS011;34442;52.362;-1.302;2023-06-19T02:36:21;6.97;;;3.20;;
48651;SDS011;34442;52.362;-1.302;2023-06-19T02:38:46;9.73;;;3.83;;
48651;SDS011;34442;52.362;-1.302;2023-06-19T02:41:13;5.93;;;3.30;;
48651;SDS011;34442;52.362;-1.302;2023-06-19T02:43:41;4.90;;;3.03;;
48651;SDS011;34442;52.362;-1.302;2023-06-19T02:46:07;5.55;;;3.22;;
48651;SDS011;34442;52.362;-1.302;2023-06-19T02:48:33;4.68;;;2.95;;
48651;SDS011;34442;52.362;-1.302;2023-06-19T02:50:59;4.25;;;2.53;;
48651;SDS011;34442;52.362;-1.302;2023-06-19T02:53:24;6.18;;;3.15;;
48651;SDS011;34442;52.362;-1.302;2023-06-19T02:55:49;5.10;;;3.13;;
48651;SDS011;34442;52.362;-1.302;2023-06-19T02:58:15;4.65;;;2.80;;
48651;SDS011;34442;52.362;-1.302;2023-06-19T03:00:40;5.82;;;3.72;;
48651;SDS011;34442;52.362;-1.302;2023-06-19T03:03:06;4.57;;;2.85;;
48651;SDS011;34442;52.362;-1.302;2023-06-19T03:05:31;5.15;;;2.95;;
48651;SDS011;34442;52.362;-1.302;2023-06-19T03:07:56;5.00;;;2.85;;
48651;SDS011;34442;52.362;-1.302;2023-06-19T03:10:22;4.75;;;2.83;;
48651;SDS011;34442;52.362;-1.302;2023-06-19T03:12:47;4.93;;;3.10;;
48651;SDS011;34442;52.362;-1.302;2023-06-19T03:15:13;5.25;;;2.97;;
48651;SDS011;34442;52.362;-1.302;2023-06-19T03:17:38;5.25;;;3.22;;
48651;SDS011;34442;52.362;-1.302;2023-06-19T03:20:04;4.93;;;2.97;;
48651;SDS011;34442;52.362;-1.302;2023-06-19T03:22:31;4.78;;;2.80;;
48651;SDS011;34442;52.362;-1.302;2023-06-19T03:24:56;5.00;;;3.00;;
48651;SDS011;34442;52.362;-1.302;2023-06-19T03:27:21;4.80;;;3.00;;
48651;SDS011;34442;52.362;-1.302;2023-06-19T03:29:47;5.80;;;3.58;;
48651;SDS011;34442;52.362;-1.302;2023-06-19T03:32:12;5.75;;;3.70;;
48651;SDS011;34442;52.362;-1.302;2023-06-19T03:34:38;6.78;;;3.30;;
48651;SDS011;34442;52.362;-1.302;2023-06-19T03:37:03;5.43;;;3.38;;
48651;SDS011;34442;52.362;-1.302;2023-06-19T03:39:29;7.03;;;3.47;;
48651;SDS011;34442;52.362;-1.302;2023-06-19T03:41:54;5.65;;;3.70;;
48651;SDS011;34442;52.362;-1.302;2023-06-19T03:44:20;5.68;;;3.25;;
48651;SDS011;34442;52.362;-1.302;2023-06-19T03:46:45;5.47;;;2.85;;
48651;SDS011;34442;52.362;-1.302;2023-06-19T03:49:12;5.60;;;3.40;;
48651;SDS011;34442;52.362;-1.302;2023-06-19T03:51:37;5.97;;;3.03;;
48651;SDS011;34442;52.362;-1.302;2023-06-19T03:54:03;4.95;;;3.08;;
48651;SDS011;34442;52.362;-1.302;2023-06-19T03:56:29;5.63;;;3.20;;
48651;SDS011;34442;52.362;-1.302;2023-06-19T03:58:54;5.45;;;3.47;;
48651;SDS011;34442;52.362;-1.302;2023-06-19T04:01:19;5.07;;;2.95;;
48651;SDS011;34442;52.362;-1.302;2023-06-19T04:03:45;5.22;;;2.95;;
48651;SDS011;34442;52.362;-1.302;2023-06-19T04:06:10;5.35;;;3.05;;
48651;SDS011;34442;52.362;-1.302;2023-06-19T04:08:35;5.55;;;3.42;;
48651;SDS011;34442;52.362;-1.302;2023-06-19T04:11:01;5.75;;;3.25;;
48651;SDS011;34442;52.362;-1.302;2023-06-19T04:13:27;5.95;;;2.95;;
48651;SDS011;34442;52.362;-1.302;2023-06-19T04:15:52;5.43;;;3.58;;
48651;SDS011;34442;52.362;-1.302;2023-06-19T04:18:17;5.65;;;3.75;;
48651;SDS011;34442;52.362;-1.302;2023-06-19T04:20:43;5.30;;;2.90;;
48651;SDS011;34442;52.362;-1.302;2023-06-19T04:23:08;6.35;;;3.58;;
48651;SDS011;34442;52.362;-1.302;2023-06-19T04:25:34;5.22;;;2.97;;
48651;SDS011;34442;52.362;-1.302;2023-06-19T04:28:00;6.13;;;3.55;;
48651;SDS011;34442;52.362;-1.302;2023-06-19T04:30:28;5.28;;;3.42;;
48651;SDS011;34442;52.362;-1.302;2023-06-19T04:32:54;5.65;;;3.15;;
48651;SDS011;34442;52.362;-1.302;2023-06-19T04:35:19;5.13;;;3.38;;
48651;SDS011;34442;52.362;-1.302;2023-06-19T04:37:45;5.45;;;3.50;;
48651;SDS011;34442;52.362;-1.302;2023-06-19T04:40:13;5.38;;;3.40;;
48651;SDS011;34442;52.362;-1.302;2023-06-19T04:42:39;5.43;;;3.42;;
48651;SDS011;34442;52.362;-1.302;2023-06-19T04:45:04;5.32;;;2.80;;
48651;SDS011;34442;52.362;-1.302;2023-06-19T04:47:34;4.78;;;2.80;;
48651;SDS011;34442;52.362;-1.302;2023-06-19T04:50:00;7.30;;;3.08;;
48651;SDS011;34442;52.362;-1.302;2023-06-19T04:52:26;5.32;;;3.40;;
48651;SDS011;34442;52.362;-1.302;2023-06-19T04:54:51;6.18;;;4.03;;
48651;SDS011;34442;52.362;-1.302;2023-06-19T04:57:17;5.22;;;2.97;;
48651;SDS011;34442;52.362;-1.302;2023-06-19T04:59:42;6.05;;;3.20;;
48651;SDS011;34442;52.362;-1.302;2023-06-19T05:02:11;6.07;;;3.33;;
48651;SDS011;34442;52.362;-1.302;2023-06-19T05:04:36;5.15;;;3.05;;
48651;SDS011;34442;52.362;-1.302;2023-06-19T05:07:02;5.28;;;2.72;;
48651;SDS011;34442;52.362;-1.302;2023-06-19T05:09:28;5.57;;;2.78;;
48651;SDS011;34442;52.362;-1.302;2023-06-19T05:11:53;5.05;;;3.10;;
48651;SDS011;34442;52.362;-1.302;2023-06-19T05:14:19;5.07;;;2.70;;
48651;SDS011;34442;52.362;-1.302;2023-06-19T05:16:45;5.20;;;3.08;;
48651;SDS011;34442;52.362;-1.302;2023-06-19T05:19:10;5.07;;;3.15;;
48651;SDS011;34442;52.362;-1.302;2023-06-19T05:21:36;5.82;;;3.03;;
48651;SDS011;34442;52.362;-1.302;2023-06-19T05:24:01;5.75;;;3.75;;
48651;SDS011;34442;52.362;-1.302;2023-06-19T05:26:27;5.45;;;3.25;;
48651;SDS011;34442;52.362;-1.302;2023-06-19T05:28:52;4.82;;;3.05;;
48651;SDS011;34442;52.362;-1.302;2023-06-19T05:31:18;5.38;;;2.90;;
48651;SDS011;34442;52.362;-1.302;2023-06-19T05:33:43;4.97;;;3.08;;
48651;SDS011;34442;52.362;-1.302;2023-06-19T05:36:09;5.97;;;3.63;;
48651;SDS011;34442;52.362;-1.302;2023-06-19T05:38:35;6.00;;;3.40;;
48651;SDS011;34442;52.362;-1.302;2023-06-19T05:41:01;5.22;;;3.03;;
48651;SDS011;34442;52.362;-1.302;2023-06-19T05:43:27;4.93;;;2.88;;
48651;SDS011;34442;52.362;-1.302;2023-06-19T05:45:53;5.40;;;3.10;;
48651;SDS011;34442;52.362;-1.302;2023-06-19T05:48:20;4.60;;;2.63;;
48651;SDS011;34442;52.362;-1.302;2023-06-19T05:50:46;4.30;;;2.50;;
48651;SDS011;34442;52.362;-1.302;2023-06-19T05:53:12;5.40;;;2.88;;
48651;SDS011;34442;52.362;-1.302;2023-06-19T05:55:37;4.70;;;2.55;;
48651;SDS011;34442;52.362;-1.302;2023-06-19T05:58:03;4.78;;;2.78;;
48651;SDS011;34442;52.362;-1.302;2023-06-19T06:00:29;5.57;;;2.90;;
48651;SDS011;34442;52.362;-1.302;2023-06-19T06:02:56;4.97;;;2.38;;
48651;SDS011;34442;52.362;-1.302;2023-06-19T06:05:24;5.07;;;2.42;;
48651;SDS011;34442;52.362;-1.302;2023-06-19T06:07:51;4.93;;;3.25;;
48651;SDS011;34442;52.362;-1.302;2023-06-19T06:10:19;5.20;;;3.20;;
48651;SDS011;34442;52.362;-1.302;2023-06-19T06:12:45;5.28;;;3.00;;
48651;SDS011;34442;52.362;-1.302;2023-06-19T06:15:11;6.55;;;3.13;;
48651;SDS011;34442;52.362;-1.302;2023-06-19T06:17:36;5.30;;;3.10;;
48651;SDS011;34442;52.362;-1.302;2023-06-19T06:20:02;6.07;;;3.55;;
48651;SDS011;34442;52.362;-1.302;2023-06-19T06:22:35;5.45;;;2.88;;
48651;SDS011;34442;52.362;-1.302;2023-06-19T06:25:01;7.60;;;3.50;;
48651;SDS011;34442;52.362;-1.302;2023-06-19T06:27:27;5.63;;;3.50;;
48651;SDS011;34442;52.362;-1.302;2023-06-19T06:29:52;5.88;;;3.35;;
48651;SDS011;34442;52.362;-1.302;2023-06-19T06:32:18;4.97;;;2.90;;
48651;SDS011;34442;52.362;-1.302;2023-06-19T06:34:43;5.35;;;2.95;;
48651;SDS011;34442;52.362;-1.302;2023-06-19T06:37:09;5.47;;;2.85;;
48651;SDS011;34442;52.362;-1.302;2023-06-19T06:39:34;6.15;;;3.08;;
48651;SDS011;34442;52.362;-1.302;2023-06-19T06:42:00;5.72;;;3.08;;
48651;SDS011;34442;52.362;-1.302;2023-06-19T06:44:25;5.63;;;3.17;;
48651;SDS011;34442;52.362;-1.302;2023-06-19T06:46:51;4.78;;;2.92;;
48651;SDS011;34442;52.362;-1.302;2023-06-19T06:49:16;5.18;;;2.92;;
48651;SDS011;34442;52.362;-1.302;2023-06-19T06:51:42;4.88;;;2.83;;
48651;SDS011;34442;52.362;-1.302;2023-06-19T06:54:07;4.68;;;2.90;;
48651;SDS011;34442;52.362;-1.302;2023-06-19T06:56:33;5.45;;;3.20;;
48651;SDS011;34442;52.362;-1.302;2023-06-19T06:58:58;5.30;;;2.72;;
48651;SDS011;34442;52.362;-1.302;2023-06-19T07:01:23;5.60;;;2.67;;
48651;SDS011;34442;52.362;-1.302;2023-06-19T07:03:49;5.00;;;2.63;;
48651;SDS011;34442;52.362;-1.302;2023-06-19T07:06:14;5.43;;;3.13;;
48651;SDS011;34442;52.362;-1.302;2023-06-19T07:08:40;4.72;;;2.65;;
48651;SDS011;34442;52.362;-1.302;2023-06-19T07:11:06;5.13;;;2.88;;
48651;SDS011;34442;52.362;-1.302;2023-06-19T07:13:32;5.82;;;3.60;;
48651;SDS011;34442;52.362;-1.302;2023-06-19T07:15:57;6.03;;;3.30;;
48651;SDS011;34442;52.362;-1.302;2023-06-19T07:18:24;5.18;;;3.17;;
48651;SDS011;34442;52.362;-1.302;2023-06-19T07:20:52;6.43;;;3.28;;
48651;SDS011;34442;52.362;-1.302;2023-06-19T07:23:18;7.38;;;3.42;;
48651;SDS011;34442;52.362;-1.302;2023-06-19T07:25:45;6.43;;;3.42;;
48651;SDS011;34442;52.362;-1.302;2023-06-19T07:28:13;4.97;;;2.80;;
48651;SDS011;34442;52.362;-1.302;2023-06-19T07:30:40;5.32;;;2.85;;
48651;SDS011;34442;52.362;-1.302;2023-06-19T07:33:05;5.72;;;3.13;;
48651;SDS011;34442;52.362;-1.302;2023-06-19T07:35:30;5.28;;;2.65;;
48651;SDS011;34442;52.362;-1.302;2023-06-19T07:37:56;5.72;;;2.78;;
48651;SDS011;34442;52.362;-1.302;2023-06-19T07:40:21;4.60;;;2.72;;
48651;SDS011;34442;52.362;-1.302;2023-06-19T07:42:47;5.43;;;2.83;;
48651;SDS011;34442;52.362;-1.302;2023-06-19T07:45:12;4.00;;;2.72;;
48651;SDS011;34442;52.362;-1.302;2023-06-19T07:47:38;4.63;;;2.65;;
48651;SDS011;34442;52.362;-1.302;2023-06-19T07:50:04;4.25;;;2.42;;
48651;SDS011;34442;52.362;-1.302;2023-06-19T07:52:30;5.15;;;3.03;;
48651;SDS011;34442;52.362;-1.302;2023-06-19T07:54:55;5.32;;;3.17;;
48651;SDS011;34442;52.362;-1.302;2023-06-19T07:57:22;5.03;;;2.80;;
48651;SDS011;34442;52.362;-1.302;2023-06-19T07:59:50;8.02;;;3.40;;
48651;SDS011;34442;52.362;-1.302;2023-06-19T08:02:15;5.07;;;3.28;;
48651;SDS011;34442;52.362;-1.302;2023-06-19T08:04:41;6.22;;;3.10;;
48651;SDS011;34442;52.362;-1.302;2023-06-19T08:07:07;6.90;;;3.30;;
48651;SDS011;34442;52.362;-1.302;2023-06-19T08:09:32;4.63;;;2.53;;
48651;SDS011;34442;52.362;-1.302;2023-06-19T08:11:58;4.50;;;2.45;;
48651;SDS011;34442;52.362;-1.302;2023-06-19T08:14:23;3.70;;;2.30;;
48651;SDS011;34442;52.362;-1.302;2023-06-19T08:16:48;6.20;;;3.35;;
48651;SDS011;34442;52.362;-1.302;2023-06-19T08:19:14;5.18;;;2.85;;
48651;SDS011;34442;52.362;-1.302;2023-06-19T08:21:39;5.13;;;2.53;;
48651;SDS011;34442;52.362;-1.302;2023-06-19T08:24:05;4.63;;;2.55;;
48651;SDS011;34442;52.362;-1.302;2023-06-19T08:26:31;4.60;;;2.42;;
48651;SDS011;34442;52.362;-1.302;2023-06-19T08:28:56;4.53;;;2.10;;
48651;SDS011;34442;52.362;-1.302;2023-06-19T08:31:21;5.43;;;2.15;;
48651;SDS011;34442;52.362;-1.302;2023-06-19T08:33:52;4.78;;;2.60;;
48651;SDS011;34442;52.362;-1.302;2023-06-19T08:36:18;4.93;;;2.58;;
48651;SDS011;34442;52.362;-1.302;2023-06-19T08:38:44;5.25;;;2.80;;
48651;SDS011;34442;52.362;-1.302;2023-06-19T08:41:09;4.65;;;2.70;;
48651;SDS011;34442;52.362;-1.302;2023-06-19T08:43:35;4.30;;;2.72;;
48651;SDS011;34442;52.362;-1.302;2023-06-19T08:48:36;4.53;;;2.22;;
48651;SDS011;34442;52.362;-1.302;2023-06-19T08:51:03;4.82;;;2.40;;
48651;SDS011;34442;52.362;-1.302;2023-06-19T08:53:31;4.72;;;2.80;;
48651;SDS011;34442;52.362;-1.302;2023-06-19T08:55:58;6.00;;;2.80;;
48651;SDS011;34442;52.362;-1.302;2023-06-19T08:58:23;3.72;;;2.08;;
48651;SDS011;34442;52.362;-1.302;2023-06-19T09:00:49;4.20;;;2.25;;
48651;SDS011;34442;52.362;-1.302;2023-06-19T09:03:19;5.45;;;2.35;;
48651;SDS011;34442;52.362;-1.302;2023-06-19T09:05:46;4.65;;;2.75;;
48651;SDS011;34442;52.362;-1.302;2023-06-19T09:08:15;5.53;;;2.15;;
48651;SDS011;34442;52.362;-1.302;2023-06-19T09:10:53;5.85;;;2.60;;
48651;SDS011;34442;52.362;-1.302;2023-06-19T09:13:30;4.30;;;2.20;;
48651;SDS011;34442;52.362;-1.302;2023-06-19T09:15:57;3.58;;;1.90;;
48651;SDS011;34442;52.362;-1.302;2023-06-19T09:18:46;4.78;;;2.78;;
48651;SDS011;34442;52.362;-1.302;2023-06-19T09:21:16;3.67;;;2.10;;
48651;SDS011;34442;52.362;-1.302;2023-06-19T09:23:43;4.10;;;2.28;;
48651;SDS011;34442;52.362;-1.302;2023-06-19T09:26:08;4.88;;;2.22;;
48651;SDS011;34442;52.362;-1.302;2023-06-19T09:28:39;4.30;;;2.28;;
48651;SDS011;34442;52.362;-1.302;2023-06-19T09:31:06;4.00;;;2.17;;
48651;SDS011;34442;52.362;-1.302;2023-06-19T09:33:32;3.60;;;1.95;;
48651;SDS011;34442;52.362;-1.302;2023-06-19T09:36:01;3.72;;;2.25;;
48651;SDS011;34442;52.362;-1.302;2023-06-19T09:38:28;3.63;;;1.83;;
48651;SDS011;34442;52.362;-1.302;2023-06-19T09:40:55;3.20;;;1.70;;
48651;SDS011;34442;52.362;-1.302;2023-06-19T09:43:24;3.65;;;1.83;;
48651;SDS011;34442;52.362;-1.302;2023-06-19T09:45:54;3.38;;;1.85;;
48651;SDS011;34442;52.362;-1.302;2023-06-19T09:48:22;3.58;;;1.77;;
48651;SDS011;34442;52.362;-1.302;2023-06-19T09:50:54;4.20;;;2.10;;
48651;SDS011;34442;52.362;-1.302;2023-06-19T09:53:24;3.85;;;2.00;;
48651;SDS011;34442;52.362;-1.302;2023-06-19T09:55:50;3.17;;;1.83;;
48651;SDS011;34442;52.362;-1.302;2023-06-19T09:58:19;4.05;;;1.85;;
48651;SDS011;34442;52.362;-1.302;2023-06-19T10:00:46;3.55;;;1.83;;
48651;SDS011;34442;52.362;-1.302;2023-06-19T10:03:13;4.15;;;1.80;;
48651;SDS011;34442;52.362;-1.302;2023-06-19T10:05:39;3.90;;;2.00;;
48651;SDS011;34442;52.362;-1.302;2023-06-19T10:08:05;3.70;;;1.80;;
48651;SDS011;34442;52.362;-1.302;2023-06-19T10:10:31;4.05;;;2.15;;
48651;SDS011;34442;52.362;-1.302;2023-06-19T10:12:59;3.88;;;2.00;;
48651;SDS011;34442;52.362;-1.302;2023-06-19T10:15:39;2.70;;;1.58;;
48651;SDS011;34442;52.362;-1.302;2023-06-19T10:18:13;3.30;;;1.92;;
48651;SDS011;34442;52.362;-1.302;2023-06-19T10:20:41;3.83;;;1.70;;
48651;SDS011;34442;52.362;-1.302;2023-06-19T10:23:14;4.07;;;2.05;;
48651;SDS011;34442;52.362;-1.302;2023-06-19T10:25:43;3.88;;;1.80;;
48651;SDS011;34442;52.362;-1.302;2023-06-19T10:30:43;3.72;;;1.77;;
48651;SDS011;34442;52.362;-1.302;2023-06-19T10:33:08;3.33;;;1.67;;
48651;SDS011;34442;52.362;-1.302;2023-06-19T10:35:40;3.70;;;2.05;;
48651;SDS011;34442;52.362;-1.302;2023-06-19T10:38:09;3.17;;;1.73;;
48651;SDS011;34442;52.362;-1.302;2023-06-19T10:40:36;4.53;;;1.50;;
48651;SDS011;34442;52.362;-1.302;2023-06-19T10:43:02;3.08;;;1.65;;
48651;SDS011;34442;52.362;-1.302;2023-06-19T10:45:29;3.47;;;1.60;;
48651;SDS011;34442;52.362;-1.302;2023-06-19T10:47:54;3.42;;;1.83;;
48651;SDS011;34442;52.362;-1.302;2023-06-19T10:50:21;3.72;;;1.90;;
48651;SDS011;34442;52.362;-1.302;2023-06-19T10:52:48;3.10;;;1.42;;
48651;SDS011;34442;52.362;-1.302;2023-06-19T10:55:17;3.70;;;1.80;;
48651;SDS011;34442;52.362;-1.302;2023-06-19T10:57:46;3.35;;;1.83;;
48651;SDS011;34442;52.362;-1.302;2023-06-19T11:00:22;3.38;;;1.85;;
48651;SDS011;34442;52.362;-1.302;2023-06-19T11:02:49;2.45;;;1.40;;
48651;SDS011;34442;52.362;-1.302;2023-06-19T11:05:14;4.05;;;1.90;;
48651;SDS011;34442;52.362;-1.302;2023-06-19T11:07:40;3.40;;;1.70;;
48651;SDS011;34442;52.362;-1.302;2023-06-19T11:10:05;4.75;;;1.63;;
48651;SDS011;34442;52.362;-1.302;2023-06-19T11:12:32;5.38;;;3.13;;
48651;SDS011;34442;52.362;-1.302;2023-06-19T11:15:04;3.13;;;1.65;;
48651;SDS011;34442;52.362;-1.302;2023-06-19T11:17:30;3.90;;;1.95;;
48651;SDS011;34442;52.362;-1.302;2023-06-19T11:19:57;3.55;;;1.75;;
48651;SDS011;34442;52.362;-1.302;2023-06-19T11:22:34;4.07;;;1.77;;
48651;SDS011;34442;52.362;-1.302;2023-06-19T11:25:02;3.30;;;1.70;;
48651;SDS011;34442;52.362;-1.302;2023-06-19T11:27:30;3.00;;;1.70;;
48651;SDS011;34442;52.362;-1.302;2023-06-19T11:29:56;3.03;;;1.70;;
48651;SDS011;34442;52.362;-1.302;2023-06-19T11:32:23;2.97;;;1.55;;
48651;SDS011;34442;52.362;-1.302;2023-06-19T11:34:56;4.25;;;1.92;;
48651;SDS011;34442;52.362;-1.302;2023-06-19T11:37:22;3.67;;;1.50;;
48651;SDS011;34442;52.362;-1.302;2023-06-19T11:39:48;3.25;;;1.75;;
48651;SDS011;34442;52.362;-1.302;2023-06-19T11:42:16;3.50;;;1.50;;
48651;SDS011;34442;52.362;-1.302;2023-06-19T11:44:59;3.25;;;1.52;;
48651;SDS011;34442;52.362;-1.302;2023-06-19T11:47:29;2.93;;;1.70;;
48651;SDS011;34442;52.362;-1.302;2023-06-19T11:49:56;3.22;;;1.60;;
48651;SDS011;34442;52.362;-1.302;2023-06-19T11:52:21;2.50;;;1.30;;
48651;SDS011;34442;52.362;-1.302;2023-06-19T11:54:47;3.60;;;1.52;;
48651;SDS011;34442;52.362;-1.302;2023-06-19T11:57:12;3.08;;;1.52;;
48651;SDS011;34442;52.362;-1.302;2023-06-19T11:59:41;3.92;;;1.67;;
48651;SDS011;34442;52.362;-1.302;2023-06-19T12:02:07;3.03;;;1.52;;
48651;SDS011;34442;52.362;-1.302;2023-06-19T12:04:33;2.78;;;1.42;;
48651;SDS011;34442;52.362;-1.302;2023-06-19T12:06:59;3.00;;;1.45;;
48651;SDS011;34442;52.362;-1.302;2023-06-19T12:09:25;2.88;;;1.63;;
48651;SDS011;34442;52.362;-1.302;2023-06-19T12:11:50;2.35;;;1.30;;
48651;SDS011;34442;52.362;-1.302;2023-06-19T12:14:16;1.85;;;1.10;;
48651;SDS011;34442;52.362;-1.302;2023-06-19T12:16:43;3.38;;;1.20;;
48651;SDS011;34442;52.362;-1.302;2023-06-19T12:19:10;2.22;;;1.20;;
48651;SDS011;34442;52.362;-1.302;2023-06-19T12:21:35;3.35;;;1.63;;
48651;SDS011;34442;52.362;-1.302;2023-06-19T12:24:01;2.88;;;1.42;;
48651;SDS011;34442;52.362;-1.302;2023-06-19T12:26:27;3.03;;;1.70;;
48651;SDS011;34442;52.362;-1.302;2023-06-19T12:28:52;2.58;;;1.33;;
48651;SDS011;34442;52.362;-1.302;2023-06-19T12:31:18;2.20;;;1.40;;
48651;SDS011;34442;52.362;-1.302;2023-06-19T12:33:43;4.07;;;1.98;;
48651;SDS011;34442;52.362;-1.302;2023-06-19T12:36:13;2.88;;;1.63;;
48651;SDS011;34442;52.362;-1.302;2023-06-19T12:38:39;3.47;;;1.80;;
48651;SDS011;34442;52.362;-1.302;2023-06-19T12:41:05;2.90;;;1.58;;
48651;SDS011;34442;52.362;-1.302;2023-06-19T12:43:31;3.80;;;1.80;;
48651;SDS011;34442;52.362;-1.302;2023-06-19T12:45:57;3.40;;;1.67;;
48651;SDS011;34442;52.362;-1.302;2023-06-19T12:48:24;2.65;;;1.52;;
48651;SDS011;34442;52.362;-1.302;2023-06-19T12:50:50;3.97;;;1.45;;
48651;SDS011;34442;52.362;-1.302;2023-06-19T12:53:16;3.85;;;1.60;;
48651;SDS011;34442;52.362;-1.302;2023-06-19T12:55:41;2.45;;;1.52;;
48651;SDS011;34442;52.362;-1.302;2023-06-19T12:58:08;3.03;;;1.63;;
48651;SDS011;34442;52.362;-1.302;2023-06-19T13:00:33;2.72;;;1.50;;
48651;SDS011;34442;52.362;-1.302;2023-06-19T13:02:59;3.58;;;1.50;;
48651;SDS011;34442;52.362;-1.302;2023-06-19T13:05:25;2.50;;;1.50;;
48651;SDS011;34442;52.362;-1.302;2023-06-19T13:07:50;3.95;;;1.77;;
48651;SDS011;34442;52.362;-1.302;2023-06-19T13:10:16;2.25;;;1.33;;
48651;SDS011;34442;52.362;-1.302;2023-06-19T13:12:41;2.53;;;1.35;;
48651;SDS011;34442;52.362;-1.302;2023-06-19T13:15:06;4.13;;;1.77;;
48651;SDS011;34442;52.362;-1.302;2023-06-19T13:17:32;3.90;;;1.95;;
48651;SDS011;34442;52.362;-1.302;2023-06-19T13:19:58;2.60;;;1.42;;
48651;SDS011;34442;52.362;-1.302;2023-06-19T13:22:24;2.10;;;1.30;;
48651;SDS011;34442;52.362;-1.302;2023-06-19T13:24:50;2.47;;;1.40;;
48651;SDS011;34442;52.362;-1.302;2023-06-19T13:27:16;2.15;;;1.23;;
48651;SDS011;34442;52.362;-1.302;2023-06-19T13:29:41;4.00;;;1.63;;
48651;SDS011;34442;52.362;-1.302;2023-06-19T13:32:07;2.65;;;1.40;;
48651;SDS011;34442;52.362;-1.302;2023-06-19T13:34:33;3.38;;;1.73;;
48651;SDS011;34442;52.362;-1.302;2023-06-19T13:36:58;2.90;;;1.38;;
48651;SDS011;34442;52.362;-1.302;2023-06-19T13:39:23;2.65;;;1.42;;
48651;SDS011;34442;52.362;-1.302;2023-06-19T13:41:49;2.85;;;1.40;;
48651;SDS011;34442;52.362;-1.302;2023-06-19T13:44:14;2.95;;;1.45;;
48651;SDS011;34442;52.362;-1.302;2023-06-19T13:46:40;3.47;;;1.42;;
48651;SDS011;34442;52.362;-1.302;2023-06-19T13:49:05;3.53;;;1.70;;
48651;SDS011;34442;52.362;-1.302;2023-06-19T13:51:31;2.53;;;1.48;;
48651;SDS011;34442;52.362;-1.302;2023-06-19T13:53:57;3.63;;;1.90;;
48651;SDS011;34442;52.362;-1.302;2023-06-19T13:56:22;3.25;;;1.38;;
48651;SDS011;34442;52.362;-1.302;2023-06-19T13:58:48;2.95;;;1.60;;
48651;SDS011;34442;52.362;-1.302;2023-06-19T14:01:14;2.08;;;1.00;;
48651;SDS011;34442;52.362;-1.302;2023-06-19T14:03:39;2.42;;;1.30;;
48651;SDS011;34442;52.362;-1.302;2023-06-19T14:06:05;2.60;;;1.17;;
48651;SDS011;34442;52.362;-1.302;2023-06-19T14:08:31;3.05;;;1.58;;
48651;SDS011;34442;52.362;-1.302;2023-06-19T14:10:56;2.25;;;1.30;;
48651;SDS011;34442;52.362;-1.302;2023-06-19T14:13:22;1.90;;;0.90;;
48651;SDS011;34442;52.362;-1.302;2023-06-19T14:15:47;1.63;;;1.10;;
48651;SDS011;34442;52.362;-1.302;2023-06-19T14:18:12;2.97;;;1.20;;
48651;SDS011;34442;52.362;-1.302;2023-06-19T14:20:38;2.30;;;1.10;;
48651;SDS011;34442;52.362;-1.302;2023-06-19T14:23:03;2.63;;;1.20;;
48651;SDS011;34442;52.362;-1.302;2023-06-19T14:25:29;1.85;;;1.10;;
48651;SDS011;34442;52.362;-1.302;2023-06-19T14:27:54;2.75;;;1.25;;
48651;SDS011;34442;52.362;-1.302;2023-06-19T14:30:20;2.13;;;1.10;;
48651;SDS011;34442;52.362;-1.302;2023-06-19T14:32:46;1.88;;;1.00;;
48651;SDS011;34442;52.362;-1.302;2023-06-19T14:35:12;1.98;;;1.15;;
48651;SDS011;34442;52.362;-1.302;2023-06-19T14:37:38;2.10;;;1.10;;